UZB70 UZST-UZTT
Flight info
| Callsign | UZB70 |
|---|---|
| Flight time | N/A |
| Altitude | 37000 |
| Route | FIZLE2A FIZLE Y300 USETU/K0839F360 M741 RONVU/K0828F350 Q325 TITAR Y92 NETAT M168 KUFIM KUFIM2W |
| Aircraft | A332/H-SDE3GHIJ2J3J5M1RVWXY/LB2D1 |
Departure
| Time | N/A |
|---|---|
| Airport | UZST |
Arrival
| Time | 2026-04-20 16:16 |
|---|---|
| Airport | Tashkent International Airport (UZTT) |
| Time | Latitude | Longitude | Altitude | Speed | Heading |
|---|---|---|---|---|---|
| 2026-04-20 14:52 | 37.28221 | 67.31699 | 1037 ft | 0 kts | 247° |
| 2026-04-20 15:14 | 37.28219 | 67.31693 | 1037 ft | 3 kts | 248° |
| 2026-04-20 15:14 | 37.28214 | 67.31640 | 1037 ft | 9 kts | 286° |
| 2026-04-20 15:15 | 37.28263 | 67.31559 | 1037 ft | 14 kts | 282° |
| 2026-04-20 15:15 | 37.28227 | 67.31415 | 1037 ft | 20 kts | 246° |
| 2026-04-20 15:15 | 37.28163 | 67.31228 | 1037 ft | 23 kts | 247° |
| 2026-04-20 15:15 | 37.28109 | 67.31070 | 1037 ft | 16 kts | 246° |
| 2026-04-20 15:16 | 37.28107 | 67.30956 | 1037 ft | 11 kts | 302° |
| 2026-04-20 15:16 | 37.28151 | 67.30881 | 1037 ft | 10 kts | 307° |
| 2026-04-20 15:16 | 37.28198 | 67.30804 | 1037 ft | 11 kts | 308° |
| 2026-04-20 15:16 | 37.28250 | 67.30720 | 1037 ft | 12 kts | 307° |
| 2026-04-20 15:17 | 37.28305 | 67.30631 | 1037 ft | 13 kts | 308° |
| 2026-04-20 15:17 | 37.28353 | 67.30555 | 1037 ft | 8 kts | 308° |
| 2026-04-20 15:17 | 37.28375 | 67.30520 | 1037 ft | 2 kts | 307° |
| 2026-04-20 15:17 | 37.28430 | 67.30431 | 1037 ft | 20 kts | 310° |
| 2026-04-20 15:18 | 37.28508 | 67.30347 | 1037 ft | 0 kts | 332° |
| 2026-04-20 15:21 | 37.28511 | 67.30345 | 1037 ft | 2 kts | 333° |
| 2026-04-20 15:21 | 37.28549 | 67.30325 | 1037 ft | 9 kts | 338° |
| 2026-04-20 15:21 | 37.28618 | 67.30266 | 1037 ft | 14 kts | 281° |
| 2026-04-20 15:21 | 37.28593 | 67.30116 | 1037 ft | 21 kts | 253° |
| 2026-04-20 15:22 | 37.28548 | 67.29912 | 1037 ft | 27 kts | 255° |
| 2026-04-20 15:22 | 37.28488 | 67.29649 | 1037 ft | 34 kts | 254° |
| 2026-04-20 15:22 | 37.28436 | 67.29359 | 1037 ft | 28 kts | 283° |
| 2026-04-20 15:22 | 37.28424 | 67.29186 | 1037 ft | 12 kts | 196° |
| 2026-04-20 15:23 | 37.28398 | 67.29247 | 1037 ft | 7 kts | 81° |
| 2026-04-20 15:23 | 37.28407 | 67.29288 | 1037 ft | 2 kts | 73° |
| 2026-04-20 15:23 | 37.28416 | 67.29327 | 1037 ft | 20 kts | 72° |
| 2026-04-20 15:23 | 37.28522 | 67.29791 | 1037 ft | 89 kts | 74° |
| 2026-04-20 15:24 | 37.28760 | 67.30834 | 1037 ft | 155 kts | 73° |
| 2026-04-20 15:24 | 37.29119 | 67.32393 | 1297 ft | 201 kts | 74° |
| 2026-04-20 15:24 | 37.29482 | 67.34135 | 2164 ft | 214 kts | 75° |
| 2026-04-20 15:24 | 37.29938 | 67.36018 | 2771 ft | 229 kts | 64° |
| 2026-04-20 15:25 | 37.31008 | 67.37601 | 3500 ft | 232 kts | 31° |
| 2026-04-20 15:25 | 37.32631 | 67.38107 | 4275 ft | 235 kts | 354° |
| 2026-04-20 15:25 | 37.34164 | 67.37276 | 5043 ft | 239 kts | 316° |
| 2026-04-20 15:25 | 37.35173 | 67.35523 | 5830 ft | 243 kts | 297° |
| 2026-04-20 15:26 | 37.35877 | 67.33626 | 6582 ft | 245 kts | 295° |
| 2026-04-20 15:26 | 37.36601 | 67.31696 | 7335 ft | 247 kts | 296° |
| 2026-04-20 15:26 | 37.37345 | 67.29720 | 8096 ft | 249 kts | 296° |
| 2026-04-20 15:26 | 37.38117 | 67.27679 | 8858 ft | 252 kts | 296° |
| 2026-04-20 15:27 | 37.38892 | 67.25646 | 9613 ft | 255 kts | 297° |
| 2026-04-20 15:27 | 37.39967 | 67.23908 | 10313 ft | 256 kts | 324° |
| 2026-04-20 15:27 | 37.41575 | 67.22802 | 11034 ft | 259 kts | 334° |
| 2026-04-20 15:27 | 37.43248 | 67.21749 | 11754 ft | 262 kts | 332° |
| 2026-04-20 15:28 | 37.44927 | 67.20659 | 12477 ft | 264 kts | 333° |
| 2026-04-20 15:28 | 37.46685 | 67.19540 | 13005 ft | 275 kts | 333° |
| 2026-04-20 15:28 | 37.48455 | 67.18418 | 12900 ft | 273 kts | 333° |
| 2026-04-20 15:28 | 37.50229 | 67.17297 | 12985 ft | 301 kts | 333° |
| 2026-04-20 15:29 | 37.52315 | 67.15983 | 13119 ft | 329 kts | 333° |
| 2026-04-20 15:29 | 37.54517 | 67.14596 | 13242 ft | 356 kts | 333° |
| 2026-04-20 15:29 | 37.56898 | 67.13101 | 13771 ft | 360 kts | 333° |
| 2026-04-20 15:29 | 37.59118 | 67.11705 | 14449 ft | 362 kts | 333° |
| 2026-04-20 15:30 | 37.61379 | 67.10284 | 15206 ft | 365 kts | 333° |
| 2026-04-20 15:30 | 37.63665 | 67.08848 | 15995 ft | 367 kts | 332° |
| 2026-04-20 15:30 | 37.66028 | 67.07364 | 16804 ft | 371 kts | 332° |
| 2026-04-20 15:30 | 37.68483 | 67.05965 | 17590 ft | 375 kts | 342° |
| 2026-04-20 15:31 | 37.71105 | 67.05582 | 18300 ft | 383 kts | 0° |
| 2026-04-20 15:31 | 37.73803 | 67.05846 | 19002 ft | 388 kts | 2° |
| 2026-04-20 15:31 | 37.76612 | 67.06102 | 19722 ft | 391 kts | 1° |
| 2026-04-20 15:31 | 37.79468 | 67.06378 | 20433 ft | 395 kts | 2° |
| 2026-04-20 15:32 | 37.82426 | 67.06686 | 21132 ft | 400 kts | 2° |
| 2026-04-20 15:32 | 37.85339 | 67.06993 | 21796 ft | 404 kts | 2° |
| 2026-04-20 15:32 | 37.88327 | 67.07310 | 22451 ft | 408 kts | 1° |
| 2026-04-20 15:32 | 37.91352 | 67.07632 | 23091 ft | 412 kts | 1° |
| 2026-04-20 15:33 | 37.94429 | 67.07962 | 23725 ft | 415 kts | 1° |
| 2026-04-20 15:33 | 37.97565 | 67.08298 | 24334 ft | 419 kts | 1° |
| 2026-04-20 15:33 | 38.00670 | 67.08630 | 24909 ft | 423 kts | 1° |
| 2026-04-20 15:33 | 38.03841 | 67.08971 | 25483 ft | 427 kts | 1° |
| 2026-04-20 15:34 | 38.06937 | 67.09302 | 26028 ft | 430 kts | 1° |
| 2026-04-20 15:34 | 38.10223 | 67.09656 | 26571 ft | 434 kts | 1° |
| 2026-04-20 15:34 | 38.13452 | 67.10002 | 27093 ft | 438 kts | 1° |
| 2026-04-20 15:34 | 38.16734 | 67.10360 | 27617 ft | 441 kts | 1° |
| 2026-04-20 15:35 | 38.19996 | 67.10718 | 28113 ft | 445 kts | 1° |
| 2026-04-20 15:35 | 38.23317 | 67.11083 | 28595 ft | 448 kts | 1° |
| 2026-04-20 15:35 | 38.26678 | 67.11453 | 29064 ft | 451 kts | 1° |
| 2026-04-20 15:35 | 38.30082 | 67.11829 | 29568 ft | 450 kts | 1° |
| 2026-04-20 15:36 | 38.33406 | 67.12196 | 30067 ft | 448 kts | 0° |
| 2026-04-20 15:36 | 38.36789 | 67.12568 | 30556 ft | 448 kts | 0° |
| 2026-04-20 15:36 | 38.40130 | 67.12936 | 30983 ft | 448 kts | 0° |
| 2026-04-20 15:37 | 38.46734 | 67.13669 | 31007 ft | 426 kts | 0° |
| 2026-04-20 15:37 | 38.53138 | 67.14369 | 30988 ft | 427 kts | 0° |
| 2026-04-20 15:38 | 38.59601 | 67.15081 | 30996 ft | 427 kts | 0° |
| 2026-04-20 15:38 | 38.65678 | 67.15750 | 30993 ft | 428 kts | 0° |
| 2026-04-20 15:39 | 38.71956 | 67.16443 | 30994 ft | 427 kts | 0° |
| 2026-04-20 15:39 | 38.78046 | 67.17114 | 30993 ft | 427 kts | 0° |
| 2026-04-20 15:40 | 38.84281 | 67.17801 | 30994 ft | 427 kts | 0° |
| 2026-04-20 15:40 | 38.90691 | 67.18507 | 30994 ft | 428 kts | 0° |
| 2026-04-20 15:41 | 38.97126 | 67.19217 | 30994 ft | 434 kts | 0° |
| 2026-04-20 15:41 | 39.03365 | 67.19905 | 30994 ft | 438 kts | 1° |
| 2026-04-20 15:42 | 39.09965 | 67.20638 | 30994 ft | 439 kts | 1° |
| 2026-04-20 15:42 | 39.16477 | 67.21358 | 30993 ft | 439 kts | 1° |
| 2026-04-20 15:43 | 39.22819 | 67.22070 | 30994 ft | 439 kts | 1° |
| 2026-04-20 15:43 | 39.29267 | 67.22793 | 30994 ft | 439 kts | 1° |
| 2026-04-20 15:44 | 39.35557 | 67.23502 | 30994 ft | 439 kts | 1° |
| 2026-04-20 15:44 | 39.41667 | 67.24190 | 30994 ft | 438 kts | 1° |
| 2026-04-20 15:45 | 39.47751 | 67.24792 | 30994 ft | 438 kts | 0° |
| 2026-04-20 15:45 | 39.54032 | 67.25409 | 30994 ft | 438 kts | 0° |
| 2026-04-20 15:46 | 39.60453 | 67.26038 | 30994 ft | 438 kts | 0° |
| 2026-04-20 15:46 | 39.66797 | 67.26662 | 30994 ft | 438 kts | 0° |
| 2026-04-20 15:47 | 39.73148 | 67.27554 | 30993 ft | 443 kts | 13° |
| 2026-04-20 15:47 | 39.76005 | 67.29338 | 31014 ft | 452 kts | 33° |
| 2026-04-20 15:47 | 39.78458 | 67.32054 | 30994 ft | 456 kts | 41° |
| 2026-04-20 15:48 | 39.83176 | 67.38005 | 30996 ft | 456 kts | 42° |
| 2026-04-20 15:48 | 39.87645 | 67.43828 | 30994 ft | 456 kts | 43° |
| 2026-04-20 15:49 | 39.92297 | 67.49927 | 30995 ft | 456 kts | 43° |
| 2026-04-20 15:49 | 39.96957 | 67.56045 | 30995 ft | 456 kts | 43° |
| 2026-04-20 15:50 | 40.01557 | 67.62086 | 30995 ft | 456 kts | 42° |
| 2026-04-20 15:50 | 40.06012 | 67.67978 | 30994 ft | 456 kts | 44° |
| 2026-04-20 15:51 | 40.10633 | 67.74081 | 30989 ft | 456 kts | 43° |
| 2026-04-20 15:51 | 40.15118 | 67.79923 | 30981 ft | 456 kts | 43° |
| 2026-04-20 15:52 | 40.19630 | 67.85792 | 30972 ft | 455 kts | 43° |
| 2026-04-20 15:52 | 40.24147 | 67.91666 | 30967 ft | 455 kts | 43° |
| 2026-04-20 15:53 | 40.30992 | 68.00570 | 30084 ft | 464 kts | 43° |
| 2026-04-20 15:53 | 40.33285 | 68.03548 | 28839 ft | 469 kts | 43° |
| 2026-04-20 15:53 | 40.35583 | 68.06531 | 27728 ft | 470 kts | 43° |
| 2026-04-20 15:54 | 40.37848 | 68.09486 | 26938 ft | 463 kts | 43° |
| 2026-04-20 15:54 | 40.40114 | 68.12442 | 26092 ft | 457 kts | 43° |
| 2026-04-20 15:54 | 40.42348 | 68.15359 | 25261 ft | 451 kts | 43° |
| 2026-04-20 15:54 | 40.44562 | 68.18250 | 24426 ft | 445 kts | 43° |
| 2026-04-20 15:55 | 40.46748 | 68.21104 | 23608 ft | 439 kts | 43° |
| 2026-04-20 15:55 | 40.48917 | 68.23937 | 22768 ft | 433 kts | 43° |
| 2026-04-20 15:55 | 40.51088 | 68.26769 | 21932 ft | 428 kts | 43° |
| 2026-04-20 15:55 | 40.53216 | 68.29549 | 21084 ft | 423 kts | 43° |
| 2026-04-20 15:56 | 40.55285 | 68.32252 | 19926 ft | 422 kts | 43° |
| 2026-04-20 15:56 | 40.57329 | 68.34924 | 18584 ft | 392 kts | 43° |
| 2026-04-20 15:56 | 40.59206 | 68.37379 | 17456 ft | 365 kts | 43° |
| 2026-04-20 15:56 | 40.60960 | 68.39682 | 16832 ft | 331 kts | 44° |
| 2026-04-20 15:57 | 40.62577 | 68.41873 | 16548 ft | 328 kts | 45° |
| 2026-04-20 15:57 | 40.64140 | 68.44023 | 16149 ft | 322 kts | 45° |
| 2026-04-20 15:57 | 40.65689 | 68.46157 | 15779 ft | 319 kts | 45° |
| 2026-04-20 15:57 | 40.67221 | 68.48275 | 15423 ft | 317 kts | 45° |
| 2026-04-20 15:58 | 40.68750 | 68.50391 | 15069 ft | 315 kts | 45° |
| 2026-04-20 15:58 | 40.70262 | 68.52486 | 14723 ft | 313 kts | 45° |
| 2026-04-20 15:58 | 40.71776 | 68.54587 | 14402 ft | 312 kts | 45° |
| 2026-04-20 15:58 | 40.73275 | 68.56670 | 14061 ft | 310 kts | 45° |
| 2026-04-20 15:59 | 40.74720 | 68.58749 | 13715 ft | 308 kts | 47° |
| 2026-04-20 15:59 | 40.76135 | 68.60860 | 13367 ft | 306 kts | 47° |
| 2026-04-20 15:59 | 40.77531 | 68.62951 | 13020 ft | 300 kts | 47° |
| 2026-04-20 15:59 | 40.78894 | 68.65002 | 12667 ft | 290 kts | 47° |
| 2026-04-20 16:00 | 40.80159 | 68.66944 | 12356 ft | 275 kts | 49° |
| 2026-04-20 16:00 | 40.81452 | 68.68777 | 12090 ft | 266 kts | 44° |
| 2026-04-20 16:00 | 40.82782 | 68.70480 | 11929 ft | 265 kts | 44° |
| 2026-04-20 16:00 | 40.84115 | 68.72202 | 11760 ft | 264 kts | 44° |
| 2026-04-20 16:01 | 40.85436 | 68.73902 | 11589 ft | 263 kts | 43° |
| 2026-04-20 16:01 | 40.86736 | 68.75570 | 11420 ft | 262 kts | 43° |
| 2026-04-20 16:01 | 40.88043 | 68.77245 | 11249 ft | 261 kts | 43° |
| 2026-04-20 16:01 | 40.89386 | 68.78892 | 11049 ft | 258 kts | 34° |
| 2026-04-20 16:02 | 40.91025 | 68.79774 | 10713 ft | 253 kts | 4° |
| 2026-04-20 16:02 | 40.92786 | 68.79906 | 10435 ft | 251 kts | 0° |
| 2026-04-20 16:02 | 40.94543 | 68.80018 | 10162 ft | 249 kts | 1° |
| 2026-04-20 16:02 | 40.96261 | 68.80143 | 9896 ft | 247 kts | 1° |
| 2026-04-20 16:03 | 40.97975 | 68.80267 | 9630 ft | 246 kts | 1° |
| 2026-04-20 16:03 | 40.99690 | 68.80393 | 9363 ft | 244 kts | 1° |
| 2026-04-20 16:03 | 41.01375 | 68.80521 | 9101 ft | 242 kts | 1° |
| 2026-04-20 16:03 | 41.03062 | 68.80633 | 8835 ft | 240 kts | 355° |
| 2026-04-20 16:04 | 41.04665 | 68.80205 | 8561 ft | 235 kts | 337° |
| 2026-04-20 16:04 | 41.06045 | 68.79121 | 8277 ft | 232 kts | 315° |
| 2026-04-20 16:04 | 41.06994 | 68.77393 | 7637 ft | 247 kts | 291° |
| 2026-04-20 16:04 | 41.07550 | 68.75231 | 7141 ft | 248 kts | 285° |
| 2026-04-20 16:05 | 41.08071 | 68.73020 | 6999 ft | 246 kts | 286° |
| 2026-04-20 16:05 | 41.08597 | 68.70839 | 7017 ft | 246 kts | 286° |
| 2026-04-20 16:05 | 41.09121 | 68.68658 | 7011 ft | 246 kts | 286° |
| 2026-04-20 16:05 | 41.09807 | 68.66541 | 7023 ft | 247 kts | 302° |
| 2026-04-20 16:06 | 41.11001 | 68.64919 | 7018 ft | 249 kts | 333° |
| 2026-04-20 16:06 | 41.12655 | 68.64489 | 7042 ft | 246 kts | 12° |
| 2026-04-20 16:06 | 41.14088 | 68.65582 | 7041 ft | 237 kts | 51° |
| 2026-04-20 16:06 | 41.14641 | 68.67635 | 6997 ft | 244 kts | 90° |
| 2026-04-20 16:07 | 41.14206 | 68.69888 | 6958 ft | 246 kts | 108° |
| 2026-04-20 16:07 | 41.13874 | 68.72119 | 6833 ft | 242 kts | 88° |
| 2026-04-20 16:07 | 41.14022 | 68.74306 | 6726 ft | 239 kts | 77° |
| 2026-04-20 16:07 | 41.14411 | 68.76447 | 6605 ft | 237 kts | 71° |
| 2026-04-20 16:08 | 41.14935 | 68.78517 | 6480 ft | 236 kts | 67° |
| 2026-04-20 16:08 | 41.15554 | 68.80555 | 6485 ft | 229 kts | 64° |
| 2026-04-20 16:08 | 41.16216 | 68.82532 | 6123 ft | 233 kts | 63° |
| 2026-04-20 16:08 | 41.16906 | 68.84460 | 5824 ft | 232 kts | 62° |
| 2026-04-20 16:09 | 41.17601 | 68.86336 | 5626 ft | 221 kts | 61° |
| 2026-04-20 16:09 | 41.18261 | 68.88078 | 5587 ft | 199 kts | 60° |
| 2026-04-20 16:09 | 41.18890 | 68.89712 | 5215 ft | 200 kts | 60° |
| 2026-04-20 16:09 | 41.19526 | 68.91346 | 4860 ft | 200 kts | 60° |
| 2026-04-20 16:10 | 41.20162 | 68.92977 | 4521 ft | 198 kts | 60° |
| 2026-04-20 16:10 | 41.20805 | 68.94618 | 4181 ft | 197 kts | 60° |
| 2026-04-20 16:10 | 41.21473 | 68.96317 | 4013 ft | 212 kts | 61° |
| 2026-04-20 16:10 | 41.22119 | 68.97969 | 4002 ft | 188 kts | 61° |
| 2026-04-20 16:11 | 41.22559 | 68.99614 | 3996 ft | 174 kts | 80° |
| 2026-04-20 16:11 | 41.22662 | 69.01112 | 3962 ft | 154 kts | 84° |
| 2026-04-20 16:11 | 41.22791 | 69.02505 | 3985 ft | 147 kts | 78° |
| 2026-04-20 16:11 | 41.22968 | 69.03853 | 3631 ft | 150 kts | 79° |
| 2026-04-20 16:12 | 41.23123 | 69.05230 | 3285 ft | 150 kts | 80° |
| 2026-04-20 16:12 | 41.23275 | 69.06596 | 3034 ft | 156 kts | 80° |
| 2026-04-20 16:12 | 41.23433 | 69.08016 | 2973 ft | 149 kts | 80° |
| 2026-04-20 16:12 | 41.23585 | 69.09384 | 3001 ft | 150 kts | 80° |
| 2026-04-20 16:13 | 41.23737 | 69.10739 | 2987 ft | 148 kts | 80° |
| 2026-04-20 16:13 | 41.23889 | 69.12113 | 2993 ft | 150 kts | 80° |
| 2026-04-20 16:13 | 41.24042 | 69.13474 | 2991 ft | 149 kts | 80° |
| 2026-04-20 16:13 | 41.24194 | 69.14842 | 2992 ft | 149 kts | 80° |
| 2026-04-20 16:14 | 41.24347 | 69.16215 | 2905 ft | 152 kts | 80° |
| 2026-04-20 16:14 | 41.24500 | 69.17600 | 2706 ft | 148 kts | 80° |
| 2026-04-20 16:14 | 41.24647 | 69.18935 | 2515 ft | 148 kts | 80° |
| 2026-04-20 16:14 | 41.24798 | 69.20297 | 2310 ft | 147 kts | 81° |
| 2026-04-20 16:15 | 41.24945 | 69.21638 | 2099 ft | 147 kts | 81° |
| 2026-04-20 16:15 | 41.25092 | 69.22972 | 1869 ft | 144 kts | 81° |
| 2026-04-20 16:15 | 41.25243 | 69.24315 | 1673 ft | 145 kts | 81° |
| 2026-04-20 16:15 | 41.25383 | 69.25637 | 1507 ft | 145 kts | 81° |
| 2026-04-20 16:16 | 41.25529 | 69.26955 | 1430 ft | 136 kts | 81° |
| 2026-04-20 16:16 | 41.25638 | 69.27956 | 1429 ft | 59 kts | 81° |
| 2026-04-20 16:16 | 41.25703 | 69.28558 | 1429 ft | 63 kts | 81° |
| 2026-04-20 16:16 | 41.25770 | 69.28883 | 1429 ft | 20 kts | 30° |
| 2026-04-20 16:17 | 41.25877 | 69.28937 | 1429 ft | 13 kts | 2° |
| 2026-04-20 16:17 | 41.25923 | 69.28870 | 1429 ft | 9 kts | 276° |
| 2026-04-20 16:17 | 41.25917 | 69.28773 | 1429 ft | 11 kts | 262° |
| 2026-04-20 16:17 | 41.25905 | 69.28664 | 1429 ft | 12 kts | 261° |
| 2026-04-20 16:18 | 41.25891 | 69.28544 | 1429 ft | 13 kts | 262° |
| 2026-04-20 16:18 | 41.25877 | 69.28409 | 1429 ft | 15 kts | 262° |
| 2026-04-20 16:18 | 41.25861 | 69.28262 | 1429 ft | 16 kts | 261° |
| 2026-04-20 16:18 | 41.25842 | 69.28097 | 1429 ft | 18 kts | 261° |
| 2026-04-20 16:19 | 41.25822 | 69.27917 | 1429 ft | 19 kts | 263° |
| 2026-04-20 16:19 | 41.25803 | 69.27731 | 1429 ft | 20 kts | 263° |
| 2026-04-20 16:19 | 41.25782 | 69.27533 | 1429 ft | 22 kts | 260° |
| 2026-04-20 16:19 | 41.25756 | 69.27322 | 1429 ft | 23 kts | 260° |
| 2026-04-20 16:20 | 41.25731 | 69.27090 | 1429 ft | 24 kts | 261° |
| 2026-04-20 16:20 | 41.25706 | 69.26849 | 1429 ft | 25 kts | 262° |
| 2026-04-20 16:20 | 41.25678 | 69.26600 | 1429 ft | 26 kts | 262° |
| 2026-04-20 16:20 | 41.25695 | 69.26397 | 1429 ft | 16 kts | 315° |
| 2026-04-20 16:21 | 41.25782 | 69.26354 | 1429 ft | 10 kts | 14° |
| 2026-04-20 16:21 | 41.25833 | 69.26396 | 1429 ft | 5 kts | 36° |
| 2026-04-20 16:21 | 41.25856 | 69.26421 | 1429 ft | 4 kts | 38° |
| 2026-04-20 16:21 | 41.25898 | 69.26465 | 1429 ft | 10 kts | 38° |
| 2026-04-20 16:22 | 41.25946 | 69.26572 | 1429 ft | 14 kts | 66° |
| 2026-04-20 16:22 | 41.25981 | 69.26680 | 1429 ft | 10 kts | 66° |
| 2026-04-20 16:22 | 41.26004 | 69.26750 | 1429 ft | 6 kts | 67° |
| 2026-04-20 16:22 | 41.26023 | 69.26794 | 1429 ft | 4 kts | 25° |
| 2026-04-20 16:23 | 41.26043 | 69.26784 | 1429 ft | 2 kts | 315° |
| 2026-04-20 16:23 | 41.26054 | 69.26769 | 1429 ft | 1 kts | 314° |
| 2026-04-20 16:23 | 41.26067 | 69.26751 | 1429 ft | 3 kts | 314° |
| 2026-04-20 16:23 | 41.26078 | 69.26737 | 1429 ft | 1 kts | 314° |
| 2026-04-20 16:24 | 41.26089 | 69.26722 | 1429 ft | 2 kts | 314° |
| 2026-04-20 16:24 | 41.26098 | 69.26711 | 1429 ft | 1 kts | 314° |
| 2026-04-20 16:24 | 41.26099 | 69.26708 | 1429 ft | 0 kts | 314° |